Time;durP1;ratioP1;P1;durP2;ratioP2;P2;SDS_P1;SDS_P2;PMS_P1;PMS_P2;Temp;Humidity;BMP_temperature;BMP_pressure;BME280_temperature;BME280_humidity;BME280_pressure;Samples;Min_cycle;Max_cycle;Signal;HPM_P1;HPM_P2
2022/05/18 00:00:01;;;;;;;3.40;2.47;;;15.60;95.40;;;;;;4140577;28;20113;-73
2022/05/18 00:02:04;;;;;;;4.47;2.08;;;15.60;95.40;;;;;;4138839;28;20062;-74
2022/05/18 00:04:06;;;;;;;4.50;2.45;;;15.60;95.40;;;;;;4139988;28;20057;-74
2022/05/18 00:06:08;;;;;;;3.08;2.67;;;15.50;95.50;;;;;;4137405;28;20050;-73
2022/05/18 00:08:11;;;;;;;4.22;2.30;;;15.50;95.60;;;;;;4136938;28;20093;-73
2022/05/18 00:10:12;;;;;;;4.07;2.30;;;15.50;95.80;;;;;;4141171;28;20065;-74
2022/05/18 00:12:14;;;;;;;2.90;2.13;;;15.40;96.40;;;;;;4140116;28;20768;-73
2022/05/18 00:14:16;;;;;;;3.67;1.90;;;15.40;96.30;;;;;;4138067;28;21218;-74
2022/05/18 00:16:21;;;;;;;2.45;2.25;;;15.40;96.30;;;;;;4137577;28;20066;-74
2022/05/18 00:18:22;;;;;;;3.42;2.10;;;15.40;96.40;;;;;;4140841;28;20077;-73
2022/05/18 00:20:24;;;;;;;1.90;1.70;;;15.40;96.40;;;;;;4143031;28;20060;-74
2022/05/18 00:22:26;;;;;;;3.15;2.05;;;15.30;96.50;;;;;;4143888;28;20065;-73
2022/05/18 00:24:28;;;;;;;2.65;2.08;;;15.30;96.60;;;;;;4145261;28;20809;-74
2022/05/18 00:26:30;;;;;;;2.35;2.05;;;15.30;96.80;;;;;;4144469;28;20173;-74
2022/05/18 00:28:33;;;;;;;4.88;2.00;;;15.20;97.10;;;;;;4143375;28;20068;-74
2022/05/18 00:30:38;;;;;;;4.00;1.98;;;15.20;97.30;;;;;;4143682;28;20058;-74
2022/05/18 00:32:40;;;;;;;2.55;2.10;;;15.20;97.20;;;;;;4141092;28;20870;-74
2022/05/18 00:34:42;;;;;;;3.33;2.30;;;15.20;97.40;;;;;;4143526;28;20051;-74
2022/05/18 00:36:44;;;;;;;3.45;2.13;;;15.20;97.50;;;;;;4141522;28;20888;-74
2022/05/18 00:38:46;;;;;;;5.75;2.10;;;15.20;97.40;;;;;;4143794;28;20055;-74
2022/05/18 00:40:49;;;;;;;2.45;2.17;;;15.10;97.70;;;;;;4143998;28;20059;-74
2022/05/18 00:42:51;;;;;;;3.72;2.15;;;15.20;97.60;;;;;;4143906;28;20062;-73
2022/05/18 00:44:53;;;;;;;4.72;2.35;;;15.10;97.80;;;;;;4142490;28;20138;-73
2022/05/18 00:46:54;;;;;;;2.63;2.42;;;15.10;98.10;;;;;;4143303;28;20058;-74
2022/05/18 00:49:16;;;;;;;2.35;2.05;;;15.10;98.10;;;;;;4146207;28;20807;-74
2022/05/18 00:51:27;;;;;;;2.55;2.05;;;15.00;98.20;;;;;;4139547;28;20817;-74
2022/05/18 00:53:37;;;;;;;2.85;2.30;;;15.00;98.50;;;;;;4141071;28;20177;-73
2022/05/18 00:55:43;;;;;;;4.05;2.30;;;15.00;98.80;;;;;;4145092;28;20201;-74
2022/05/18 00:57:55;;;;;;;3.28;2.05;;;14.90;98.90;;;;;;4140023;28;20066;-74
2022/05/18 01:00:00;;;;;;;3.72;2.03;;;14.90;98.90;;;;;;4142571;28;20159;-74
2022/05/18 01:02:04;;;;;;;2.88;2.58;;;14.90;99.00;;;;;;4147600;28;20072;-74
2022/05/18 01:04:09;;;;;;;4.47;2.10;;;14.90;99.20;;;;;;4136938;28;20054;-74
2022/05/18 01:06:19;;;;;;;2.63;2.42;;;14.80;99.60;;;;;;4135918;28;20066;-74
2022/05/18 01:08:30;;;;;;;4.63;2.10;;;14.70;99.90;;;;;;4140757;28;20081;-74
2022/05/18 01:10:33;;;;;;;2.85;2.40;;;14.70;99.90;;;;;;4147965;28;20057;-74
2022/05/18 01:12:35;;;;;;;2.78;2.33;;;14.60;99.90;;;;;;4138929;28;20798;-74
2022/05/18 01:14:45;;;;;;;4.13;2.38;;;14.60;99.90;;;;;;4141201;28;20657;-74
2022/05/18 01:16:48;;;;;;;4.57;2.10;;;14.60;99.90;;;;;;4134432;28;20063;-74
2022/05/18 01:18:50;;;;;;;3.20;2.58;;;14.70;99.90;;;;;;4135838;28;20794;-73
2022/05/18 01:20:52;;;;;;;3.78;2.63;;;14.60;99.90;;;;;;4141972;28;20064;-74
2022/05/18 01:23:03;;;;;;;2.53;2.33;;;14.70;99.90;;;;;;4134740;28;20825;-73
2022/05/18 01:25:36;;;;;;;4.43;2.40;;;14.70;99.90;;;;;;4136918;28;20085;-74
2022/05/18 01:27:38;;;;;;;2.75;2.50;;;14.70;99.90;;;;;;4147749;28;20057;-74
2022/05/18 01:29:39;;;;;;;2.67;2.40;;;14.70;99.90;;;;;;4138133;28;20870;-74
2022/05/18 01:31:57;;;;;;;2.95;2.35;;;14.70;99.90;;;;;;4136471;28;20058;-74
2022/05/18 01:34:01;;;;;;;4.10;2.90;;;14.70;99.90;;;;;;4139827;28;20157;-74
2022/05/18 01:36:04;;;;;;;2.70;2.42;;;14.70;99.90;;;;;;4143194;28;20054;-74
2022/05/18 01:38:07;;;;;;;3.17;2.35;;;14.60;99.90;;;;;;4139678;28;20062;-73
2022/05/18 01:40:29;;;;;;;2.92;2.00;;;14.60;99.90;;;;;;4143389;28;20668;-74
2022/05/18 01:42:49;;;;;;;3.80;2.60;;;14.50;99.90;;;;;;4140944;28;20062;-73
2022/05/18 01:44:51;;;;;;;2.42;2.13;;;14.50;99.90;;;;;;4141277;28;20161;-74
2022/05/18 01:46:53;;;;;;;4.72;3.03;;;14.40;99.90;;;;;;4140314;28;20058;-74
2022/05/18 01:48:55;;;;;;;4.18;2.30;;;14.40;99.90;;;;;;4141201;28;20054;-74
2022/05/18 01:50:59;;;;;;;4.93;2.20;;;14.40;99.90;;;;;;4141110;28;20083;-73
2022/05/18 01:53:01;;;;;;;3.53;2.05;;;14.40;99.90;;;;;;4142522;28;20058;-74
2022/05/18 01:55:04;;;;;;;3.22;2.50;;;14.40;99.90;;;;;;4142063;28;20061;-74
2022/05/18 01:57:06;;;;;;;5.60;2.72;;;14.40;99.90;;;;;;4141283;28;20063;-74
2022/05/18 01:59:09;;;;;;;2.60;2.40;;;14.40;99.90;;;;;;4145880;28;20058;-74
2022/05/18 02:01:10;;;;;;;4.68;2.38;;;14.40;99.90;;;;;;4140513;28;21121;-74
2022/05/18 02:03:13;;;;;;;3.10;2.60;;;14.40;99.90;;;;;;4141836;28;20061;-74
2022/05/18 02:05:15;;;;;;;3.00;2.70;;;14.30;99.90;;;;;;4140590;28;20092;-74
2022/05/18 02:07:17;;;;;;;3.53;2.25;;;14.20;99.90;;;;;;4139676;28;20145;-75
2022/05/18 02:09:20;;;;;;;3.47;2.85;;;14.20;99.90;;;;;;4144145;28;20801;-74
2022/05/18 02:11:22;;;;;;;7.72;2.50;;;14.10;99.90;;;;;;4141972;28;20075;-74
2022/05/18 02:13:24;;;;;;;5.28;2.60;;;14.00;99.90;;;;;;4142644;28;20065;-74
2022/05/18 02:15:26;;;;;;;4.10;3.20;;;14.00;99.90;;;;;;4145868;28;20062;-74
2022/05/18 02:17:29;;;;;;;2.50;2.30;;;14.00;99.90;;;;;;4138276;28;20861;-74
2022/05/18 02:19:31;;;;;;;4.47;3.00;;;14.00;99.90;;;;;;4143699;28;20062;-74
2022/05/18 02:21:33;;;;;;;3.00;2.65;;;13.90;99.90;;;;;;4138795;28;20090;-74
2022/05/18 02:23:35;;;;;;;3.58;2.75;;;13.90;99.90;;;;;;4136290;28;20695;-74
2022/05/18 02:25:37;;;;;;;3.20;2.78;;;13.90;99.90;;;;;;4142196;28;20060;-74
2022/05/18 02:27:39;;;;;;;3.45;3.13;;;14.00;99.90;;;;;;4135249;28;20177;-74
2022/05/18 02:29:41;;;;;;;2.83;2.10;;;13.90;99.90;;;;;;4143032;28;20063;-74
2022/05/18 02:31:43;;;;;;;2.97;2.45;;;14.00;99.90;;;;;;4140394;28;20063;-74
2022/05/18 02:33:44;;;;;;;3.10;2.45;;;13.90;99.90;;;;;;4136181;28;20896;-74
2022/05/18 02:35:46;;;;;;;4.35;2.65;;;13.90;99.90;;;;;;4137220;28;20059;-74
2022/05/18 02:37:48;;;;;;;4.32;2.53;;;13.90;99.90;;;;;;4143356;28;20162;-76
2022/05/18 02:39:50;;;;;;;3.55;3.20;;;13.90;99.90;;;;;;4134488;28;20055;-74
2022/05/18 02:41:51;;;;;;;3.03;2.60;;;13.90;99.90;;;;;;4141280;28;20096;-74
2022/05/18 02:43:54;;;;;;;2.83;2.45;;;13.90;99.90;;;;;;4134408;28;20065;-74
2022/05/18 02:46:07;;;;;;;2.80;2.47;;;13.90;99.90;;;;;;4141343;28;20050;-74
2022/05/18 02:48:09;;;;;;;3.95;3.15;;;13.90;99.90;;;;;;4142303;28;20833;-74
2022/05/18 02:50:11;;;;;;;4.10;2.40;;;13.90;99.90;;;;;;4139546;28;20106;-74
2022/05/18 02:52:13;;;;;;;3.55;3.08;;;13.90;99.90;;;;;;4145033;28;20157;-74
2022/05/18 02:56:35;;;;;;;4.13;2.50;;;13.90;99.90;;;;;;4144162;28;20286;-74
2022/05/18 02:58:49;;;;;;;3.10;2.30;;;13.90;99.90;;;;;;4144920;28;20059;-74
2022/05/18 03:00:52;;;;;;;5.38;2.78;;;13.90;99.90;;;;;;4144500;28;20055;-74
2022/05/18 03:02:54;;;;;;;3.08;2.60;;;13.80;99.90;;;;;;4143638;28;20065;-74
2022/05/18 03:04:56;;;;;;;2.78;2.50;;;13.80;99.90;;;;;;4142824;28;20068;-74
2022/05/18 03:07:00;;;;;;;2.92;2.70;;;13.80;99.90;;;;;;4144635;28;20065;-74
2022/05/18 03:09:01;;;;;;;2.55;2.35;;;13.70;99.90;;;;;;4143496;28;20058;-74
2022/05/18 03:11:04;;;;;;;2.70;2.15;;;13.70;99.90;;;;;;4145532;28;20058;-74
2022/05/18 03:13:06;;;;;;;2.58;2.38;;;13.70;99.90;;;;;;4146484;28;20058;-74
2022/05/18 03:15:08;;;;;;;3.58;2.83;;;13.70;99.90;;;;;;4145710;28;20065;-74
2022/05/18 03:17:12;;;;;;;4.32;3.15;;;13.70;99.90;;;;;;4142982;28;20124;-73
2022/05/18 03:19:14;;;;;;;3.70;2.88;;;13.60;99.90;;;;;;4145343;28;20054;-74
2022/05/18 03:23:37;;;;;;;3.03;2.80;;;13.50;99.90;;;;;;4142207;28;20063;-73
2022/05/18 03:25:40;;;;;;;3.38;2.97;;;13.60;99.90;;;;;;4144102;28;20896;-74
2022/05/18 03:27:43;;;;;;;4.20;3.10;;;13.50;99.90;;;;;;4143702;28;20058;-74
2022/05/18 03:29:44;;;;;;;2.97;2.65;;;13.50;99.90;;;;;;4140653;28;20869;-74
2022/05/18 03:31:47;;;;;;;3.50;3.20;;;13.50;99.90;;;;;;4138647;28;20059;-74
2022/05/18 03:33:50;;;;;;;3.95;3.55;;;13.40;99.90;;;;;;4137765;28;20063;-75
2022/05/18 03:35:53;;;;;;;2.97;2.78;;;13.40;99.90;;;;;;4148285;28;20058;-74
2022/05/18 03:37:54;;;;;;;5.28;3.13;;;13.40;99.90;;;;;;4148409;28;20094;-74
2022/05/18 03:39:56;;;;;;;3.42;2.97;;;13.40;99.90;;;;;;4138039;28;20093;-77
2022/05/18 03:41:58;;;;;;;3.60;3.28;;;13.40;99.90;;;;;;4140072;28;20093;-74
2022/05/18 03:44:00;;;;;;;4.43;2.92;;;13.40;99.90;;;;;;4134482;28;20978;-74
2022/05/18 03:46:03;;;;;;;6.13;3.60;;;13.40;99.90;;;;;;4141990;28;20059;-77
2022/05/18 03:48:06;;;;;;;9.43;4.55;;;13.30;99.90;;;;;;4136705;28;20747;-77
2022/05/18 03:50:08;;;;;;;7.18;3.95;;;13.30;99.90;;;;;;4140598;28;20122;-74
2022/05/18 03:52:10;;;;;;;3.75;3.45;;;13.40;99.90;;;;;;4139678;28;20059;-74
2022/05/18 03:54:11;;;;;;;3.25;2.78;;;13.30;99.90;;;;;;4138659;28;20069;-74
2022/05/18 03:56:14;;;;;;;3.47;3.28;;;13.40;99.90;;;;;;4139855;28;20097;-74
2022/05/18 03:58:16;;;;;;;3.45;3.25;;;13.40;99.90;;;;;;4137788;28;20166;-74
2022/05/18 04:00:18;;;;;;;4.70;2.85;;;13.30;99.90;;;;;;4145863;28;20860;-74
2022/05/18 04:02:20;;;;;;;6.47;3.55;;;13.30;99.90;;;;;;4145402;28;20057;-74
2022/05/18 04:04:22;;;;;;;3.88;2.70;;;13.30;99.90;;;;;;4144984;28;20051;-74
2022/05/18 04:06:24;;;;;;;3.35;3.05;;;13.30;99.90;;;;;;4149174;28;20058;-74
2022/05/18 04:08:25;;;;;;;4.55;3.30;;;13.40;99.90;;;;;;4138815;28;20063;-74
2022/05/18 04:10:27;;;;;;;3.53;3.22;;;13.40;99.90;;;;;;4141165;28;20069;-76
2022/05/18 04:12:29;;;;;;;3.10;2.90;;;13.40;99.90;;;;;;4146171;28;20058;-76
2022/05/18 04:14:30;;;;;;;4.55;2.83;;;13.40;99.90;;;;;;4146825;28;20224;-76
2022/05/18 04:16:32;;;;;;;2.95;2.72;;;13.40;99.90;;;;;;4143987;28;20838;-76
2022/05/18 04:18:34;;;;;;;3.80;3.50;;;13.40;99.90;;;;;;4146638;28;20874;-76
2022/05/18 04:20:38;;;;;;;4.63;3.10;;;13.50;99.90;;;;;;4147576;28;20065;-76
2022/05/18 04:22:41;;;;;;;4.60;3.55;;;13.60;99.90;;;;;;4148336;28;20090;-75
2022/05/18 04:24:42;;;;;;;3.72;3.42;;;13.60;99.90;;;;;;4146159;28;20061;-76
2022/05/18 04:26:44;;;;;;;3.65;2.80;;;13.80;99.90;;;;;;4148153;28;20908;-74
2022/05/18 04:28:46;;;;;;;3.28;2.25;;;14.00;99.90;;;;;;4146938;28;20089;-73
2022/05/18 04:30:48;;;;;;;4.18;3.20;;;14.10;99.90;;;;;;4147521;28;20184;-74
2022/05/18 04:32:51;;;;;;;3.45;3.15;;;14.30;99.90;;;;;;4144593;28;20058;-74
2022/05/18 04:34:52;;;;;;;5.93;2.88;;;14.50;99.90;;;;;;4145178;28;20157;-74
2022/05/18 04:36:54;;;;;;;2.80;2.60;;;14.60;99.90;;;;;;4147139;28;20065;-74
2022/05/18 04:38:56;;;;;;;4.45;2.78;;;14.70;99.90;;;;;;4142846;28;21183;-74
2022/05/18 04:40:58;;;;;;;3.95;2.58;;;14.80;99.90;;;;;;4145418;28;20244;-74
2022/05/18 04:42:59;;;;;;;4.82;2.92;;;14.90;99.90;;;;;;4144377;28;20643;-73
2022/05/18 04:45:03;;;;;;;4.47;2.75;;;15.00;99.90;;;;;;4145500;28;20063;-73
2022/05/18 04:47:05;;;;;;;4.10;2.67;;;15.00;99.90;;;;;;4146288;28;20059;-73
2022/05/18 04:49:07;;;;;;;2.90;2.70;;;15.20;99.50;;;;;;4142074;28;20186;-74
2022/05/18 04:51:09;;;;;;;6.45;2.85;;;15.20;98.90;;;;;;4147201;28;20062;-74
2022/05/18 04:53:11;;;;;;;3.33;2.40;;;15.30;98.30;;;;;;4142299;28;20065;-74
2022/05/18 04:55:13;;;;;;;6.15;2.17;;;15.50;97.60;;;;;;4142966;28;20059;-74
2022/05/18 04:57:16;;;;;;;5.70;2.45;;;15.50;96.60;;;;;;4141975;28;20193;-75
2022/05/18 04:59:17;;;;;;;4.90;3.17;;;15.70;96.10;;;;;;4143872;28;20096;-75
2022/05/18 05:01:19;;;;;;;4.00;2.60;;;15.80;95.70;;;;;;4143436;28;20866;-75
2022/05/18 05:03:21;;;;;;;2.60;2.40;;;15.90;95.20;;;;;;4141090;28;20105;-76
2022/05/18 05:05:26;;;;;;;2.40;2.20;;;16.00;95.60;;;;;;4142791;28;20109;-73
2022/05/18 05:07:27;;;;;;;2.40;2.20;;;16.00;95.00;;;;;;4141797;28;20059;-74
2022/05/18 05:09:29;;;;;;;7.80;2.60;;;16.20;94.70;;;;;;4142465;28;21121;-75
2022/05/18 05:11:31;;;;;;;3.28;2.50;;;16.30;94.20;;;;;;4142261;28;20069;-75
2022/05/18 05:13:34;;;;;;;2.28;2.08;;;16.40;93.90;;;;;;4143579;28;20074;-75
2022/05/18 05:15:37;;;;;;;3.10;2.53;;;16.50;93.90;;;;;;4142299;28;20069;-74
2022/05/18 05:17:38;;;;;;;3.08;2.35;;;16.60;93.70;;;;;;4145004;28;20057;-76
2022/05/18 05:19:40;;;;;;;3.75;2.15;;;16.70;93.10;;;;;;4147402;28;20097;-78
2022/05/18 05:21:42;;;;;;;3.40;2.08;;;16.80;92.80;;;;;;4150097;28;20062;-76
2022/05/18 05:23:46;;;;;;;2.33;2.13;;;16.80;92.50;;;;;;4150585;28;20076;-73
2022/05/18 05:25:48;;;;;;;3.28;2.30;;;16.90;92.50;;;;;;4145870;28;20062;-75
2022/05/18 05:27:50;;;;;;;2.75;2.00;;;16.90;92.00;;;;;;4142330;28;20065;-75
2022/05/18 05:29:52;;;;;;;4.63;2.35;;;16.90;91.90;;;;;;4146566;28;20897;-74
2022/05/18 05:31:54;;;;;;;2.40;2.13;;;17.00;91.60;;;;;;4144493;28;20142;-75
2022/05/18 05:33:56;;;;;;;2.47;2.28;;;17.00;91.50;;;;;;4148408;28;20062;-74
2022/05/18 05:35:58;;;;;;;2.17;1.77;;;17.10;91.40;;;;;;4147025;28;20053;-75
2022/05/18 05:38:00;;;;;;;2.47;2.28;;;17.10;91.30;;;;;;4146904;28;20849;-75
2022/05/18 05:40:03;;;;;;;5.63;2.10;;;17.20;91.50;;;;;;4146159;28;20058;-75
2022/05/18 05:42:05;;;;;;;3.67;2.47;;;17.30;91.00;;;;;;4144224;28;20732;-75
2022/05/18 05:44:07;;;;;;;3.40;2.60;;;17.30;91.00;;;;;;4141126;28;20053;-75
2022/05/18 05:46:13;;;;;;;4.65;2.53;;;17.40;90.70;;;;;;4144917;28;20161;-75
2022/05/18 05:48:15;;;;;;;2.35;1.85;;;17.50;90.40;;;;;;4142479;28;20074;-75
2022/05/18 05:50:17;;;;;;;3.35;2.20;;;17.70;90.20;;;;;;4142111;28;20094;-75
2022/05/18 05:52:19;;;;;;;6.43;2.30;;;17.80;89.80;;;;;;4138820;28;20055;-75
2022/05/18 05:54:21;;;;;;;3.05;2.20;;;17.90;88.50;;;;;;4140539;28;20825;-74
2022/05/18 05:56:23;;;;;;;2.63;2.03;;;18.00;87.90;;;;;;4143002;28;20070;-74
2022/05/18 05:58:26;;;;;;;2.10;2.00;;;18.10;87.10;;;;;;4140093;28;20054;-75
2022/05/18 06:00:28;;;;;;;3.33;2.20;;;18.30;86.80;;;;;;4142676;28;20126;-75
2022/05/18 06:02:29;;;;;;;1.90;1.80;;;18.40;85.80;;;;;;4145515;28;20104;-74
2022/05/18 06:04:33;;;;;;;3.70;2.40;;;18.50;84.40;;;;;;4143773;28;20777;-73
2022/05/18 06:06:37;;;;;;;4.18;2.17;;;18.70;83.20;;;;;;4145706;28;20133;-73
2022/05/18 06:08:41;;;;;;;2.28;1.90;;;18.80;82.50;;;;;;4146654;28;20058;-73
2022/05/18 06:10:43;;;;;;;2.28;1.88;;;18.90;82.30;;;;;;4141561;28;20185;-73
2022/05/18 06:12:45;;;;;;;3.80;1.95;;;19.00;81.80;;;;;;4142533;28;20066;-80
2022/05/18 06:14:48;;;;;;;3.17;2.28;;;19.10;82.10;;;;;;4140487;28;20094;-76
2022/05/18 06:16:49;;;;;;;4.30;2.60;;;19.10;81.40;;;;;;4144262;28;20804;-77
2022/05/18 06:18:51;;;;;;;3.20;2.13;;;19.30;80.40;;;;;;4144535;28;20063;-77
2022/05/18 06:20:53;;;;;;;5.20;1.75;;;19.40;80.50;;;;;;4149195;28;20092;-80
2022/05/18 06:22:58;;;;;;;4.72;1.95;;;19.40;80.50;;;;;;4149459;28;20707;-79
2022/05/18 06:25:00;;;;;;;4.38;1.80;;;19.50;80.60;;;;;;4143835;28;20880;-81
2022/05/18 06:27:02;;;;;;;3.67;2.30;;;19.60;79.80;;;;;;4153020;28;20169;-80
2022/05/18 06:29:05;;;;;;;1.98;1.77;;;19.70;78.60;;;;;;4166749;28;20902;-80
2022/05/18 06:31:07;;;;;;;1.80;1.42;;;19.80;77.30;;;;;;4165135;28;20049;-79
2022/05/18 06:33:10;;;;;;;7.15;2.67;;;19.80;77.30;;;;;;4159942;28;20065;-81
2022/05/18 06:35:12;;;;;;;2.78;2.20;;;19.90;77.40;;;;;;4153605;28;20050;-75
2022/05/18 06:37:13;;;;;;;2.47;2.28;;;19.90;77.30;;;;;;4137395;28;20059;-73
2022/05/18 06:39:18;;;;;;;2.20;1.30;;;20.00;77.40;;;;;;4142273;28;20061;-74
2022/05/18 06:41:22;;;;;;;2.90;1.63;;;20.00;76.30;;;;;;4139510;28;20137;-73
2022/05/18 06:43:24;;;;;;;4.05;2.35;;;20.00;75.90;;;;;;4136863;28;20066;-74
2022/05/18 06:45:26;;;;;;;3.17;2.03;;;20.10;75.30;;;;;;4144242;28;20058;-74
2022/05/18 06:47:28;;;;;;;2.20;2.00;;;20.10;76.00;;;;;;4140832;28;20150;-74
2022/05/18 06:49:29;;;;;;;5.85;2.35;;;20.20;75.40;;;;;;4140362;28;21119;-74
2022/05/18 06:51:34;;;;;;;3.60;2.15;;;20.30;75.80;;;;;;4141255;28;20181;-76
2022/05/18 06:53:36;;;;;;;2.88;1.88;;;20.40;75.80;;;;;;4144440;28;20652;-76
2022/05/18 06:55:37;;;;;;;3.03;1.90;;;20.50;74.30;;;;;;4140573;28;20849;-79
2022/05/18 06:57:59;;;;;;;2.70;1.70;;;20.50;74.00;;;;;;4142634;28;20069;-77
2022/05/18 07:00:04;;;;;;;2.03;1.90;;;20.50;72.40;;;;;;4141207;28;20064;-77
2022/05/18 07:02:06;;;;;;;2.70;1.92;;;20.60;72.90;;;;;;4143130;28;20050;-77
2022/05/18 07:04:12;;;;;;;2.35;2.08;;;20.60;72.50;;;;;;4142698;28;20665;-77
2022/05/18 07:06:16;;;;;;;1.80;1.70;;;20.60;71.80;;;;;;4140263;28;20063;-77
2022/05/18 07:08:19;;;;;;;5.38;2.05;;;20.60;71.80;;;;;;4140044;28;20065;-77
2022/05/18 07:10:21;;;;;;;2.63;1.88;;;20.70;72.30;;;;;;4138843;28;20057;-77
2022/05/18 07:12:24;;;;;;;2.95;1.92;;;20.70;72.20;;;;;;4139800;28;20059;-77
2022/05/18 07:14:28;;;;;;;3.95;1.58;;;20.70;71.30;;;;;;4143443;28;20051;-77
2022/05/18 07:16:29;;;;;;;1.75;1.65;;;20.80;69.70;;;;;;4137659;28;20075;-77
2022/05/18 07:18:33;;;;;;;4.15;1.80;;;20.80;71.10;;;;;;4136418;28;20063;-77
2022/05/18 07:20:34;;;;;;;4.15;1.77;;;20.90;70.10;;;;;;4144110;28;20113;-77
2022/05/18 07:22:36;;;;;;;6.68;1.67;;;21.00;69.40;;;;;;4143858;28;20097;-77
2022/05/18 07:24:38;;;;;;;3.85;2.10;;;21.10;69.80;;;;;;4139373;28;20067;-77
2022/05/18 07:26:40;;;;;;;2.72;2.05;;;21.10;70.60;;;;;;4139584;28;20055;-77
2022/05/18 07:28:42;;;;;;;2.67;1.80;;;21.20;69.70;;;;;;4135275;28;20288;-77
2022/05/18 07:30:45;;;;;;;1.83;1.67;;;21.20;70.10;;;;;;4137306;28;20181;-76
2022/05/18 07:32:46;;;;;;;1.98;1.80;;;21.30;68.40;;;;;;4134722;28;20059;-77
2022/05/18 07:34:48;;;;;;;3.60;2.08;;;21.40;68.20;;;;;;4132887;28;20086;-77
2022/05/18 07:36:52;;;;;;;4.22;2.00;;;21.40;68.70;;;;;;4138797;28;20736;-77
2022/05/18 07:38:54;;;;;;;4.55;2.33;;;21.40;68.50;;;;;;4139513;28;20105;-76
2022/05/18 07:40:56;;;;;;;2.95;2.03;;;21.50;69.40;;;;;;4141803;28;20148;-77
2022/05/18 07:42:57;;;;;;;4.05;1.95;;;21.60;69.10;;;;;;4145699;28;20068;-77
2022/05/18 07:44:59;;;;;;;3.28;2.05;;;21.60;69.00;;;;;;4143487;28;20062;-76
2022/05/18 07:47:03;;;;;;;4.65;1.67;;;21.70;69.90;;;;;;4141439;28;20177;-77
2022/05/18 07:49:05;;;;;;;4.18;1.65;;;21.70;68.90;;;;;;4140770;28;20065;-77
2022/05/18 07:51:07;;;;;;;1.88;1.75;;;21.80;68.40;;;;;;4143764;28;20058;-77
2022/05/18 07:53:09;;;;;;;2.05;1.75;;;21.80;69.60;;;;;;4144432;28;20065;-77
2022/05/18 07:55:11;;;;;;;2.13;1.85;;;21.80;70.50;;;;;;4142394;28;20063;-77
2022/05/18 07:57:13;;;;;;;2.40;2.20;;;21.90;68.60;;;;;;4143801;28;20141;-77
2022/05/18 07:59:15;;;;;;;2.15;1.98;;;21.90;70.10;;;;;;4143277;28;20055;-77
2022/05/18 08:01:17;;;;;;;1.67;1.52;;;22.00;69.60;;;;;;4138765;28;20058;-77
2022/05/18 08:03:18;;;;;;;2.35;1.77;;;22.10;69.10;;;;;;4143137;28;20081;-77
2022/05/18 08:05:21;;;;;;;3.28;2.30;;;22.10;67.00;;;;;;4140270;28;20157;-77
2022/05/18 08:07:22;;;;;;;2.40;1.83;;;22.20;67.90;;;;;;4142392;28;20058;-77
2022/05/18 08:09:25;;;;;;;2.08;1.67;;;22.30;65.50;;;;;;4140919;28;20063;-77
2022/05/18 08:16:07;;;;;;;2.17;1.83;;;22.40;62.30;;;;;;4141249;28;20051;-77
2022/05/18 08:18:10;;;;;;;2.08;1.65;;;22.50;64.60;;;;;;4145454;28;20062;-77
2022/05/18 08:20:15;;;;;;;2.33;2.13;;;22.50;64.30;;;;;;4144522;28;20058;-77
2022/05/18 08:22:17;;;;;;;2.53;1.77;;;22.60;63.70;;;;;;4140503;28;20054;-77
2022/05/18 08:24:19;;;;;;;2.35;2.15;;;22.70;63.20;;;;;;4141582;28;20105;-77
2022/05/18 08:26:21;;;;;;;3.63;1.95;;;22.70;61.90;;;;;;4142940;28;20054;-77
2022/05/18 08:28:23;;;;;;;4.80;2.25;;;22.70;62.10;;;;;;4144761;28;20088;-77
2022/05/18 08:30:25;;;;;;;4.50;1.98;;;22.80;61.90;;;;;;4143546;28;20065;-77
2022/05/18 08:32:27;;;;;;;5.30;1.88;;;22.90;62.30;;;;;;4142247;28;20086;-77
2022/05/18 08:34:29;;;;;;;3.05;2.45;;;22.90;62.70;;;;;;4140194;28;20065;-77
2022/05/18 08:36:32;;;;;;;2.28;1.50;;;22.90;63.90;;;;;;4137208;28;20129;-77
2022/05/18 08:38:35;;;;;;;5.15;2.00;;;23.00;61.90;;;;;;4139234;28;20063;-77
2022/05/18 08:40:48;;;;;;;2.78;1.95;;;23.00;63.80;;;;;;4137276;28;20725;-77
2022/05/18 08:42:49;;;;;;;2.28;1.50;;;23.00;63.10;;;;;;4144630;28;20173;-77
2022/05/18 08:44:51;;;;;;;4.55;2.83;;;23.00;63.70;;;;;;4143068;28;20062;-75
2022/05/18 08:47:19;;;;;;;2.92;2.15;;;23.10;61.70;;;;;;4140269;28;20071;-75
2022/05/18 08:49:29;;;;;;;3.45;1.48;;;23.20;61.40;;;;;;4139404;28;20058;-75
2022/05/18 08:51:38;;;;;;;7.30;2.35;;;23.30;61.80;;;;;;4143563;28;20054;-75
2022/05/18 08:53:49;;;;;;;2.17;1.90;;;23.30;61.20;;;;;;4148426;28;20066;-75
2022/05/18 08:56:02;;;;;;;2.10;1.90;;;23.20;61.60;;;;;;4141310;28;20076;-75
2022/05/18 08:58:10;;;;;;;2.83;1.80;;;23.30;61.10;;;;;;4140907;28;20050;-75
2022/05/18 09:00:29;;;;;;;4.18;2.15;;;23.40;61.00;;;;;;4156240;28;20168;-75
2022/05/18 09:02:33;;;;;;;4.50;1.90;;;23.50;61.00;;;;;;4141436;28;20581;-75
2022/05/18 09:04:41;;;;;;;2.42;2.17;;;23.50;61.20;;;;;;4139918;28;21104;-75
2022/05/18 09:07:09;;;;;;;3.30;2.30;;;23.50;59.50;;;;;;4151238;28;20140;-75
2022/05/18 09:11:38;;;;;;;2.33;1.88;;;23.50;60.70;;;;;;4139499;28;20062;-75
2022/05/18 09:13:40;;;;;;;2.80;1.48;;;23.60;58.10;;;;;;4147079;28;20811;-75
2022/05/18 09:15:50;;;;;;;1.90;1.80;;;23.70;57.40;;;;;;4143302;28;20116;-75
2022/05/18 09:18:30;;;;;;;4.63;1.88;;;23.70;57.40;;;;;;4139087;28;22049;-75
2022/05/18 09:20:43;;;;;;;2.28;1.90;;;23.70;57.30;;;;;;4138113;28;20097;-75
2022/05/18 09:23:21;;;;;;;1.70;1.45;;;23.70;57.00;;;;;;4139433;28;20166;-75
2022/05/18 09:25:29;;;;;;;4.60;1.83;;;23.70;55.60;;;;;;4141835;28;20054;-75
2022/05/18 09:27:31;;;;;;;3.47;1.95;;;23.70;56.20;;;;;;4153377;28;20641;-75
2022/05/18 09:30:00;;;;;;;1.70;1.50;;;23.80;57.20;;;;;;4144760;28;20152;-75
2022/05/18 09:32:01;;;;;;;1.58;1.48;;;23.80;54.50;;;;;;4145918;28;20692;-75
2022/05/18 09:34:42;;;;;;;2.25;1.45;;;23.90;54.50;;;;;;4142461;28;20776;-75
2022/05/18 09:37:01;;;;;;;1.85;1.75;;;23.90;55.80;;;;;;4151904;28;20149;-75
2022/05/18 09:39:09;;;;;;;2.55;1.70;;;23.90;54.80;;;;;;4138536;28;20742;-75
2022/05/18 09:41:16;;;;;;;2.38;1.55;;;23.90;56.20;;;;;;4145947;28;20062;-75
2022/05/18 09:43:39;;;;;;;3.17;2.15;;;23.90;58.60;;;;;;4138243;28;20104;-75
2022/05/18 09:45:45;;;;;;;3.85;1.65;;;23.90;59.90;;;;;;4148795;28;20059;-75
2022/05/18 09:47:54;;;;;;;1.95;1.60;;;24.00;57.20;;;;;;4147791;28;20058;-75
2022/05/18 09:50:02;;;;;;;4.90;2.03;;;24.10;57.90;;;;;;4159728;28;20062;-75
2022/05/18 09:52:05;;;;;;;3.45;1.85;;;24.10;58.40;;;;;;4144421;28;20067;-75
2022/05/18 09:54:07;;;;;;;3.75;1.80;;;24.10;55.70;;;;;;4141279;28;20058;-75
2022/05/18 09:56:16;;;;;;;4.93;1.85;;;24.10;55.60;;;;;;4141864;28;20055;-75
2022/05/18 09:58:29;;;;;;;2.92;1.60;;;24.10;54.60;;;;;;4148061;28;20062;-75
2022/05/18 10:00:34;;;;;;;3.35;1.48;;;24.10;54.60;;;;;;4149979;28;20923;-75
2022/05/18 10:07:34;;;;;;;1.90;1.38;;;24.10;56.30;;;;;;4145924;28;20660;-75
2022/05/18 10:09:41;;;;;;;1.88;1.60;;;24.20;57.20;;;;;;4142046;28;20719;-76
2022/05/18 10:11:44;;;;;;;2.53;1.60;;;24.20;56.00;;;;;;4140871;28;20817;-74
2022/05/18 10:14:05;;;;;;;2.95;1.38;;;24.30;57.50;;;;;;4138996;28;20128;-74
2022/05/18 10:16:20;;;;;;;2.60;2.10;;;24.40;55.60;;;;;;4140769;28;20059;-75
2022/05/18 10:18:41;;;;;;;3.45;1.60;;;24.40;55.40;;;;;;4136450;28;20054;-74
2022/05/18 10:21:00;;;;;;;5.32;1.85;;;24.40;55.70;;;;;;4139658;28;20062;-74
2022/05/18 10:23:37;;;;;;;1.70;1.50;;;24.50;55.50;;;;;;4137137;28;20068;-74
2022/05/18 10:25:49;;;;;;;2.75;1.75;;;24.50;56.70;;;;;;4138606;28;20108;-75
2022/05/18 10:27:51;;;;;;;2.08;1.88;;;24.50;55.90;;;;;;4140566;28;20089;-73
2022/05/18 10:30:02;;;;;;;3.47;1.83;;;24.60;56.40;;;;;;4138438;28;20054;-74
2022/05/18 10:32:10;;;;;;;4.15;1.95;;;24.60;56.60;;;;;;4142776;28;20058;-74
2022/05/18 10:34:21;;;;;;;3.60;2.10;;;24.50;56.60;;;;;;4144755;28;20165;-77
2022/05/18 10:36:28;;;;;;;2.55;1.70;;;24.50;55.90;;;;;;4147280;28;20084;-74
2022/05/18 10:38:33;;;;;;;3.28;2.30;;;24.60;56.00;;;;;;4147141;28;20061;-74
2022/05/18 10:40:35;;;;;;;2.85;1.80;;;24.60;56.20;;;;;;4145444;28;20760;-75
2022/05/18 10:43:11;;;;;;;2.60;1.85;;;24.60;55.30;;;;;;4145361;28;20157;-74
2022/05/18 10:45:35;;;;;;;2.83;1.77;;;24.60;55.00;;;;;;4146108;28;20054;-75
2022/05/18 10:47:38;;;;;;;3.08;1.80;;;24.50;55.70;;;;;;4147241;28;20065;-74
2022/05/18 10:49:40;;;;;;;2.17;1.80;;;24.50;55.40;;;;;;4143205;28;20069;-75
2022/05/18 10:51:45;;;;;;;2.50;1.77;;;24.60;55.50;;;;;;4146180;28;20209;-75
2022/05/18 10:53:47;;;;;;;4.90;2.00;;;24.70;56.50;;;;;;4139227;28;20137;-75
2022/05/18 10:56:00;;;;;;;5.45;2.03;;;24.70;55.40;;;;;;4145515;28;20062;-74
2022/05/18 10:58:23;;;;;;;2.20;1.60;;;24.70;55.20;;;;;;4143970;28;20190;-75
2022/05/18 11:00:35;;;;;;;1.77;1.67;;;24.80;55.50;;;;;;4142920;28;20110;-74
2022/05/18 11:02:39;;;;;;;1.83;1.73;;;24.80;56.10;;;;;;4142434;28;20809;-75
2022/05/18 11:04:56;;;;;;;2.28;1.50;;;24.80;54.30;;;;;;4142328;28;20054;-74
2022/05/18 11:06:58;;;;;;;3.47;1.60;;;24.90;55.90;;;;;;4146618;28;21133;-76